createdAt,value
2023-04-15T00:01:00.371Z,95395.25
2023-04-15T00:03:27.141Z,95396.94
2023-04-15T00:05:53.850Z,95402.97
2023-04-15T00:08:20.779Z,95401.31
2023-04-15T00:10:48.061Z,95393.47
2023-04-15T00:13:15.300Z,95391.41
2023-04-15T00:15:42.418Z,95392.75
2023-04-15T00:18:09.070Z,95398.03
2023-04-15T00:20:35.822Z,95387.44
2023-04-15T00:23:02.596Z,95399.88
2023-04-15T00:25:29.051Z,95399.03
2023-04-15T00:27:55.368Z,95400.47
2023-04-15T00:30:22.538Z,95405.09
2023-04-15T00:32:49.765Z,95399.34
2023-04-15T00:35:16.531Z,95395.47
2023-04-15T00:37:44.214Z,95401.03
2023-04-15T00:40:12.846Z,95394.28
2023-04-15T00:42:39.935Z,95403.97
2023-04-15T00:45:07.167Z,95399.03
2023-04-15T00:47:33.961Z,95390.97
2023-04-15T00:50:00.478Z,95396.28
2023-04-15T00:52:27.260Z,95394.09
2023-04-15T00:54:53.681Z,95398.28
2023-04-15T00:57:22.778Z,95398.41
2023-04-15T00:59:49.458Z,95385.56
2023-04-15T01:02:16.613Z,95396.16
2023-04-15T01:04:43.481Z,95390.88
2023-04-15T01:07:10.164Z,95394.66
2023-04-15T01:09:36.531Z,95398.88
2023-04-15T01:12:04.135Z,95393.44
2023-04-15T01:14:30.714Z,95398.34
2023-04-15T01:16:57.571Z,95394.81
2023-04-15T01:19:24.283Z,95397.50
2023-04-15T01:21:50.695Z,95393.56
2023-04-15T01:24:18.492Z,95406.41
2023-04-15T01:26:45.194Z,95400.84
2023-04-15T01:29:11.633Z,95404.38
2023-04-15T01:31:38.651Z,95410.47
2023-04-15T01:34:05.049Z,95415.50
2023-04-15T01:36:31.563Z,95414.03
2023-04-15T01:38:58.474Z,95411.13
2023-04-15T01:41:28.372Z,95406.53
2023-04-15T01:43:55.202Z,95407.34
2023-04-15T01:46:22.063Z,95413.47
2023-04-15T01:48:48.404Z,95406.03
2023-04-15T01:51:14.792Z,95418.69
2023-04-15T01:53:41.348Z,95421.78
2023-04-15T01:56:08.125Z,95415.97
2023-04-15T01:58:34.488Z,95429.56
2023-04-15T02:01:01.857Z,95424.72
2023-04-15T02:03:29.603Z,95420.06
2023-04-15T02:05:56.682Z,95421.78
2023-04-15T02:08:23.175Z,95421.03
2023-04-15T02:10:49.577Z,95408.34
2023-04-15T02:13:17.241Z,95409.22
2023-04-15T02:15:49.974Z,95407.88
2023-04-15T02:18:16.815Z,95410.28
2023-04-15T02:20:47.106Z,95406.28
2023-04-15T02:23:13.819Z,95407.06
2023-04-15T02:25:40.414Z,95412.91
2023-04-15T02:28:06.728Z,95417.00
2023-04-15T02:30:33.775Z,95411.97
2023-04-15T02:33:00.648Z,95410.09
2023-04-15T02:35:27.477Z,95407.72
2023-04-15T02:37:54.791Z,95409.44
2023-04-15T02:40:21.833Z,95416.59
2023-04-15T02:42:48.203Z,95406.53
2023-04-15T02:45:14.799Z,95415.78
2023-04-15T02:47:41.969Z,95415.53
2023-04-15T02:52:35.637Z,95416.03
2023-04-15T02:55:02.630Z,95414.97
2023-04-15T02:57:31.902Z,95419.66
2023-04-15T02:59:58.244Z,95412.50
2023-04-15T03:02:24.769Z,95416.25
2023-04-15T03:04:51.415Z,95430.66
2023-04-15T03:07:18.217Z,95429.75
2023-04-15T03:09:45.183Z,95434.31
2023-04-15T03:12:11.611Z,95433.66
2023-04-15T03:14:37.899Z,95430.22
2023-04-15T03:17:04.215Z,95430.69
2023-04-15T03:19:30.796Z,95425.81
2023-04-15T03:21:57.216Z,95417.94
2023-04-15T03:24:24.719Z,95421.53
2023-04-15T03:26:51.708Z,95416.94
2023-04-15T03:29:18.022Z,95421.19
2023-04-15T03:31:44.387Z,95414.06
2023-04-15T03:34:10.775Z,95419.34
2023-04-15T03:36:37.259Z,95414.56
2023-04-15T03:39:04.356Z,95418.81
2023-04-15T03:41:31.040Z,95410.97
2023-04-15T03:43:57.490Z,95418.94
2023-04-15T03:46:24.072Z,95407.75
2023-04-15T03:48:50.557Z,95412.50
2023-04-15T03:51:16.982Z,95409.75
2023-04-15T03:53:43.490Z,95414.38
2023-04-15T03:56:09.928Z,95414.25
2023-04-15T03:58:36.637Z,95413.56
2023-04-15T04:01:02.989Z,95416.59
2023-04-15T04:03:29.628Z,95419.13
2023-04-15T04:05:56.231Z,95411.41
2023-04-15T04:08:23.609Z,95411.75
2023-04-15T04:10:49.971Z,95407.81
2023-04-15T04:13:16.376Z,95414.94
2023-04-15T04:15:42.801Z,95421.19
2023-04-15T04:18:09.302Z,95420.94
2023-04-15T04:20:35.719Z,95422.34
2023-04-15T04:23:02.051Z,95423.50
2023-04-15T04:25:28.515Z,95424.53
2023-04-15T04:27:54.867Z,95424.28
2023-04-15T04:30:22.361Z,95426.69
2023-04-15T04:32:49.727Z,95430.84
2023-04-15T04:35:16.107Z,95427.66
2023-04-15T04:37:42.608Z,95422.25
2023-04-15T04:40:09.478Z,95420.47
2023-04-15T04:42:38.556Z,95429.38
2023-04-15T04:45:06.367Z,95432.91
2023-04-15T04:47:32.777Z,95425.47
2023-04-15T04:49:59.188Z,95429.31
2023-04-15T04:52:25.593Z,95417.91
2023-04-15T04:54:52.672Z,95425.34
2023-04-15T04:57:19.010Z,95422.53
2023-04-15T04:59:45.303Z,95420.19
2023-04-15T05:02:12.359Z,95425.66
2023-04-15T05:04:38.842Z,95425.16
2023-04-15T05:07:05.210Z,95420.78
2023-04-15T05:09:33.891Z,95415.88
2023-04-15T05:12:01.361Z,95424.09
2023-04-15T05:14:27.800Z,95418.69
2023-04-15T05:16:54.435Z,95420.97
2023-04-15T05:19:21.617Z,95414.28
2023-04-15T05:21:48.296Z,95416.56
2023-04-15T05:24:14.633Z,95422.31
2023-04-15T05:26:42.430Z,95417.50
2023-04-15T05:29:09.232Z,95427.59
2023-04-15T05:31:36.103Z,95431.41
2023-04-15T05:34:03.423Z,95434.91
2023-04-15T05:36:29.777Z,95437.72
2023-04-15T05:38:56.466Z,95434.25
2023-04-15T05:41:22.872Z,95443.94
2023-04-15T05:43:49.314Z,95448.97
2023-04-15T05:46:15.959Z,95452.88
2023-04-15T05:48:42.306Z,95456.97
2023-04-15T05:51:08.822Z,95458.03
2023-04-15T05:53:45.908Z,95469.19
2023-04-15T05:56:12.322Z,95463.84
2023-04-15T05:58:38.674Z,95470.34
2023-04-15T06:01:05.612Z,95479.31
2023-04-15T06:03:32.176Z,95489.91
2023-04-15T06:05:58.554Z,95484.09
2023-04-15T06:08:24.897Z,95494.63
2023-04-15T06:10:51.777Z,95496.31
2023-04-15T06:13:18.115Z,95493.25
2023-04-15T06:15:44.527Z,95491.84
2023-04-15T06:18:11.853Z,95494.16
2023-04-15T06:20:38.463Z,95490.34
2023-04-15T06:23:04.908Z,95491.75
2023-04-15T06:25:31.296Z,95496.97
2023-04-15T06:27:57.724Z,95495.19
2023-04-15T06:30:24.555Z,95495.44
2023-04-15T06:32:55.220Z,95494.38
2023-04-15T06:35:34.818Z,95491.84
2023-04-15T06:38:01.309Z,95495.22
2023-04-15T06:40:28.158Z,95503.59
2023-04-15T06:42:54.975Z,95494.75
2023-04-15T06:45:22.400Z,95490.00
2023-04-15T06:47:48.748Z,95491.69
2023-04-15T06:50:15.084Z,95494.09
2023-04-15T06:52:41.535Z,95493.25
2023-04-15T06:55:08.132Z,95495.03
2023-04-15T06:57:35.192Z,95493.88
2023-04-15T07:00:02.382Z,95489.69
2023-04-15T07:02:28.776Z,95494.50
2023-04-15T07:04:55.565Z,95490.50
2023-04-15T07:07:22.768Z,95494.56
2023-04-15T07:09:49.214Z,95494.22
2023-04-15T07:12:15.648Z,95482.16
2023-04-15T07:14:42.285Z,95482.66
2023-04-15T07:17:09.379Z,95486.03
2023-04-15T07:19:35.936Z,95485.75
2023-04-15T07:22:02.266Z,95480.28
2023-04-15T07:24:28.713Z,95481.34
2023-04-15T07:26:59.454Z,95477.59
2023-04-15T07:29:27.109Z,95474.59
2023-04-15T07:31:53.534Z,95479.88
2023-04-15T07:34:21.580Z,95485.22
2023-04-15T07:36:52.546Z,95492.28
2023-04-15T07:39:19.008Z,95484.19
2023-04-15T07:41:45.545Z,95481.13
2023-04-15T07:44:12.579Z,95477.94
2023-04-15T07:46:39.030Z,95471.19
2023-04-15T07:49:08.649Z,95476.47
2023-04-15T07:51:35.094Z,95474.22
2023-04-15T07:54:01.492Z,95476.50
2023-04-15T07:56:27.831Z,95474.53
2023-04-15T07:58:56.015Z,95472.16
2023-04-15T08:01:23.141Z,95470.47
2023-04-15T08:03:49.698Z,95476.16
2023-04-15T08:06:16.198Z,95470.47
2023-04-15T08:08:43.064Z,95468.34
2023-04-15T08:11:09.520Z,95468.91
2023-04-15T08:13:36.119Z,95466.56
2023-04-15T08:16:22.983Z,95471.31
2023-04-15T08:18:50.326Z,95466.66
2023-04-15T08:21:17.017Z,95471.38
2023-04-15T08:23:43.870Z,95468.06
2023-04-15T08:26:10.243Z,95468.75
2023-04-15T08:28:38.284Z,95472.59
2023-04-15T08:31:04.739Z,95472.16
2023-04-15T08:33:31.146Z,95475.38
2023-04-15T08:35:58.088Z,95466.78
2023-04-15T08:38:24.611Z,95473.22
2023-04-15T08:40:51.744Z,95466.97
2023-04-15T08:43:26.371Z,95466.84
2023-04-15T08:45:53.135Z,95463.69
2023-04-15T08:48:19.687Z,95465.78
2023-04-15T08:50:46.608Z,95463.81
2023-04-15T08:53:13.666Z,95463.41
2023-04-15T08:55:43.204Z,95457.78
2023-04-15T08:58:10.656Z,95452.47
2023-04-15T09:00:38.294Z,95447.88
2023-04-15T09:03:05.559Z,95443.00
2023-04-15T09:05:36.062Z,95446.97
2023-04-15T09:08:02.656Z,95439.69
2023-04-15T09:10:29.868Z,95436.34
2023-04-15T09:12:56.713Z,95445.91
2023-04-15T09:15:27.544Z,95444.97
2023-04-15T09:17:54.211Z,95447.59
2023-04-15T09:20:21.054Z,95450.28
2023-04-15T09:22:48.461Z,95450.19
2023-04-15T09:25:32.160Z,95458.34
2023-04-15T09:28:01.060Z,95459.81
2023-04-15T09:30:43.264Z,95464.84
2023-04-15T09:33:11.125Z,95462.34
2023-04-15T09:35:37.488Z,95465.66
2023-04-15T09:38:07.727Z,95461.28
2023-04-15T09:40:38.259Z,95460.22
2023-04-15T09:43:05.415Z,95463.78
2023-04-15T09:45:32.464Z,95463.06
2023-04-15T09:47:59.527Z,95461.72
2023-04-15T09:50:29.675Z,95462.66
2023-04-15T09:52:56.336Z,95470.25
2023-04-15T09:55:23.885Z,95464.91
2023-04-15T09:57:50.286Z,95464.25
2023-04-15T10:00:16.800Z,95464.78
2023-04-15T10:02:43.476Z,95464.94
2023-04-15T10:05:14.307Z,95465.59
2023-04-15T10:07:42.858Z,95468.69
2023-04-15T10:10:10.878Z,95465.75
2023-04-15T10:12:38.360Z,95467.38
2023-04-15T10:15:05.521Z,95465.34
2023-04-15T10:17:37.059Z,95468.97
2023-04-15T10:20:04.951Z,95473.50
2023-04-15T10:22:32.572Z,95472.94
2023-04-15T10:25:00.689Z,95471.22
2023-04-15T10:27:27.791Z,95481.84
2023-04-15T10:29:54.395Z,95479.25
2023-04-15T10:32:21.343Z,95481.75
2023-04-15T10:34:49.330Z,95486.28
2023-04-15T10:37:20.996Z,95491.97
2023-04-15T10:39:47.825Z,95490.63
2023-04-15T10:42:15.985Z,95494.13
2023-04-15T10:44:46.243Z,95500.78
2023-04-15T10:47:13.960Z,95508.09
2023-04-15T10:49:48.228Z,95509.50
2023-04-15T10:52:16.071Z,95503.41
2023-04-15T10:54:42.494Z,95511.16
2023-04-15T10:57:10.453Z,95513.28
2023-04-15T10:59:38.220Z,95519.28
2023-04-15T11:02:05.998Z,95518.09
2023-04-15T11:04:52.558Z,95513.63
2023-04-15T11:07:38.496Z,95523.47
2023-04-15T11:10:25.423Z,95522.31
2023-04-15T11:12:54.369Z,95527.75
2023-04-15T11:15:35.150Z,95527.72
2023-04-15T11:18:12.014Z,95528.78
2023-04-15T11:20:39.285Z,95531.97
2023-04-15T11:23:14.237Z,95541.53
2023-04-15T11:25:41.894Z,95540.06
2023-04-15T11:28:08.296Z,95545.09
2023-04-15T11:30:35.746Z,95540.78
2023-04-15T11:33:03.906Z,95547.25
2023-04-15T11:35:30.323Z,95543.47
2023-04-15T11:37:57.202Z,95555.28
2023-04-15T11:40:24.734Z,95554.56
2023-04-15T11:43:11.362Z,95567.03
2023-04-15T11:45:38.777Z,95577.69
2023-04-15T11:48:12.058Z,95584.97
2023-04-15T11:50:40.880Z,95576.91
2023-04-15T11:53:08.633Z,95583.69
2023-04-15T11:55:47.078Z,95594.19
2023-04-15T11:58:16.873Z,95596.47
2023-04-15T12:00:47.997Z,95598.94
2023-04-15T12:03:14.615Z,95604.28
2023-04-15T12:05:59.756Z,95614.63
2023-04-15T12:08:26.062Z,95609.59
2023-04-15T12:10:58.764Z,95617.78
2023-04-15T12:13:27.544Z,95615.38
2023-04-15T12:15:55.583Z,95621.13
2023-04-15T12:18:22.592Z,95610.97
2023-04-15T12:20:50.039Z,95618.19
2023-04-15T12:23:28.906Z,95618.44
2023-04-15T12:25:55.318Z,95627.22
2023-04-15T12:28:22.542Z,95628.97
2023-04-15T12:30:51.641Z,95637.06
2023-04-15T12:33:18.635Z,95639.38
2023-04-15T12:35:44.997Z,95637.66
2023-04-15T12:38:11.420Z,95642.84
2023-04-15T12:40:37.764Z,95650.78
2023-04-15T12:43:04.161Z,95648.06
2023-04-15T12:45:30.687Z,95651.53
2023-04-15T12:47:57.278Z,95662.16
2023-04-15T12:50:24.003Z,95655.81
2023-04-15T12:52:50.916Z,95661.97
2023-04-15T12:55:17.380Z,95666.91
2023-04-15T12:57:43.717Z,95664.94
2023-04-15T13:00:10.367Z,95675.94
2023-04-15T13:02:37.134Z,95677.31
2023-04-15T13:05:04.003Z,95679.44
2023-04-15T13:07:30.314Z,95687.13
2023-04-15T13:09:56.916Z,95693.19
2023-04-15T13:12:23.924Z,95691.94
2023-04-15T13:14:50.330Z,95700.78
2023-04-15T13:17:19.373Z,95700.22
2023-04-15T13:19:45.867Z,95702.13
2023-04-15T13:22:12.626Z,95714.34
2023-04-15T13:24:39.352Z,95708.88
2023-04-15T13:27:05.742Z,95720.25
2023-04-15T13:29:32.577Z,95714.94
2023-04-15T13:32:00.337Z,95719.66
2023-04-15T13:34:26.777Z,95713.66
2023-04-15T13:36:54.161Z,95723.56
2023-04-15T13:39:20.811Z,95727.69
2023-04-15T13:41:48.412Z,95732.19
2023-04-15T13:44:14.831Z,95728.06
2023-04-15T13:46:42.588Z,95724.44
2023-04-15T13:49:09.417Z,95728.50
2023-04-15T13:51:38.560Z,95739.28
2023-04-15T13:54:05.456Z,95741.63
2023-04-15T13:56:32.275Z,95740.41
2023-04-15T13:59:02.198Z,95746.59
2023-04-15T14:01:28.971Z,95748.47
2023-04-15T14:03:55.767Z,95746.03
2023-04-15T14:06:22.472Z,95750.56
2023-04-15T14:08:49.310Z,95752.91
2023-04-15T14:11:17.436Z,95756.28
2023-04-15T14:13:43.815Z,95758.44
2023-04-15T14:16:10.472Z,95765.19
2023-04-15T14:18:37.695Z,95768.72
2023-04-15T14:21:05.199Z,95773.13
2023-04-15T14:23:31.511Z,95774.81
2023-04-15T14:25:57.801Z,95776.56
2023-04-15T14:28:24.428Z,95781.94
2023-04-15T14:30:50.843Z,95784.66
2023-04-15T14:33:17.305Z,95789.63
2023-04-15T14:35:43.715Z,95784.25
2023-04-15T14:38:11.275Z,95794.94
2023-04-15T14:40:37.986Z,95796.22
2023-04-15T14:43:04.305Z,95804.72
2023-04-15T14:45:30.660Z,95808.50
2023-04-15T14:47:57.102Z,95821.13
2023-04-15T14:50:23.984Z,95810.84
2023-04-15T14:52:50.478Z,95816.44
2023-04-15T14:55:16.792Z,95824.94
2023-04-15T14:57:43.163Z,95829.56
2023-04-15T15:00:10.707Z,95835.16
2023-04-15T15:02:40.136Z,95843.38
2023-04-15T15:05:10.923Z,95840.44
2023-04-15T15:07:38.212Z,95854.72
2023-04-15T15:10:04.929Z,95846.88
2023-04-15T15:12:31.327Z,95855.75
2023-04-15T15:14:57.810Z,95870.13
2023-04-15T15:17:24.271Z,95874.34
2023-04-15T15:19:50.922Z,95875.97
2023-04-15T15:22:18.878Z,95880.38
2023-04-15T15:24:46.487Z,95879.84
2023-04-15T15:27:12.765Z,95889.09
2023-04-15T15:29:39.164Z,95892.03
2023-04-15T15:32:05.652Z,95884.88
2023-04-15T15:34:32.125Z,95884.16
2023-04-15T15:36:58.520Z,95892.44
2023-04-15T15:39:24.870Z,95901.72
2023-04-15T15:41:51.254Z,95903.41
2023-04-15T15:44:17.650Z,95906.19
2023-04-15T15:46:44.142Z,95917.31
2023-04-15T15:49:11.439Z,95917.88
2023-04-15T15:51:37.827Z,95928.94
2023-04-15T15:54:04.180Z,95921.25
2023-04-15T15:56:30.457Z,95929.03
2023-04-15T15:58:56.813Z,95936.94
2023-04-15T16:01:23.710Z,95942.47
2023-04-15T16:03:50.273Z,95939.84
2023-04-15T16:06:16.751Z,95947.75
2023-04-15T16:08:43.055Z,95953.63
2023-04-15T16:11:09.355Z,95948.72
2023-04-15T16:13:36.112Z,95962.97
2023-04-15T16:16:02.481Z,95970.75
2023-04-15T16:18:28.854Z,95977.41
2023-04-15T16:20:55.368Z,95979.69
2023-04-15T16:23:24.056Z,95978.78
2023-04-15T16:25:50.475Z,95976.63
2023-04-15T16:28:26.490Z,95981.09
2023-04-15T16:30:54.441Z,95990.03
2023-04-15T16:33:21.209Z,95994.59
2023-04-15T16:36:00.138Z,96001.63
2023-04-15T16:38:26.515Z,96008.25
2023-04-15T16:40:54.414Z,95998.50
2023-04-15T16:43:20.858Z,96009.63
2023-04-15T16:45:50.933Z,96013.41
2023-04-15T16:48:19.895Z,96010.41
2023-04-15T16:50:46.303Z,96015.91
2023-04-15T16:53:12.817Z,96014.53
2023-04-15T16:55:39.673Z,96026.25
2023-04-15T16:58:08.342Z,96026.16
2023-04-15T17:00:36.717Z,96032.56
2023-04-15T17:03:03.456Z,96035.19
2023-04-15T17:05:32.958Z,96041.16
2023-04-15T17:07:59.350Z,96040.25
2023-04-15T17:10:26.238Z,96049.06
2023-04-15T17:12:55.231Z,96049.19
2023-04-15T17:15:22.532Z,96054.25
2023-04-15T17:17:48.947Z,96070.84
2023-04-15T17:20:17.443Z,96070.50
2023-04-15T17:22:44.072Z,96076.00
2023-04-15T17:25:10.450Z,96081.88
2023-04-15T17:27:38.688Z,96088.63
2023-04-15T17:30:06.068Z,96082.19
2023-04-15T17:32:34.591Z,96094.50
2023-04-15T17:35:02.832Z,96104.00
2023-04-15T17:37:29.213Z,96111.69
2023-04-15T17:40:09.683Z,96112.25
2023-04-15T17:42:36.017Z,96122.13
2023-04-15T17:45:02.391Z,96128.06
2023-04-15T17:47:28.760Z,96134.97
2023-04-15T17:49:55.969Z,96137.28
2023-04-15T17:52:22.510Z,96139.91
2023-04-15T17:54:49.113Z,96152.53
2023-04-15T17:57:15.523Z,96153.78
2023-04-15T17:59:44.102Z,96160.97
2023-04-15T18:02:11.695Z,96180.69
2023-04-15T18:04:38.372Z,96178.72
2023-04-15T18:07:05.160Z,96178.44
2023-04-15T18:09:31.615Z,96179.53
2023-04-15T18:11:58.373Z,96194.03
2023-04-15T18:14:34.233Z,96197.22
2023-04-15T18:17:02.470Z,96192.84
2023-04-15T18:19:29.552Z,96190.38
2023-04-15T18:21:55.981Z,96190.28
2023-04-15T18:24:22.966Z,96197.31
2023-04-15T18:26:49.694Z,96202.03
2023-04-15T18:29:19.165Z,96205.09
2023-04-15T18:31:45.520Z,96196.22
2023-04-15T18:34:11.927Z,96191.81
2023-04-15T18:36:38.344Z,96198.69
2023-04-15T18:39:05.074Z,96190.84
2023-04-15T18:41:31.710Z,96202.09
2023-04-15T18:43:58.101Z,96202.28
2023-04-15T18:46:24.458Z,96204.50
2023-04-15T18:48:51.588Z,96216.22
2023-04-15T18:51:18.794Z,96205.72
2023-04-15T18:53:45.560Z,96207.94
2023-04-15T18:56:16.077Z,96213.88
2023-04-15T18:59:26.003Z,96217.78
2023-04-15T19:01:43.409Z,96217.06
2023-04-15T19:04:10.242Z,96225.69
2023-04-15T19:06:36.672Z,96230.53
2023-04-15T19:09:03.244Z,96235.56
2023-04-15T19:11:29.769Z,96240.13
2023-04-15T19:13:56.350Z,96234.28
2023-04-15T19:16:23.575Z,96247.47
2023-04-15T19:18:49.895Z,96243.81
2023-04-15T19:21:16.224Z,96248.75
2023-04-15T19:23:43.214Z,96254.16
2023-04-15T19:26:10.311Z,96260.94
2023-04-15T19:28:36.657Z,96262.66
2023-04-15T19:31:03.086Z,96263.38
2023-04-15T19:33:31.506Z,96267.38
2023-04-15T19:36:00.913Z,96273.16
2023-04-15T19:38:27.262Z,96281.69
2023-04-15T19:40:53.641Z,96283.94
2023-04-15T19:43:19.981Z,96293.94
2023-04-15T19:45:49.208Z,96300.88
2023-04-15T19:48:16.121Z,96294.84
2023-04-15T19:50:42.870Z,96305.50
2023-04-15T19:53:09.232Z,96306.72
2023-04-15T19:55:36.043Z,96314.38
2023-04-15T19:58:02.483Z,96312.50
2023-04-15T20:00:28.892Z,96317.84
2023-04-15T20:02:55.945Z,96313.88
2023-04-15T20:05:22.585Z,96317.81
2023-04-15T20:07:52.570Z,96312.56
2023-04-15T20:10:19.663Z,96314.25
2023-04-15T20:12:52.123Z,96310.06
2023-04-15T20:15:19.628Z,96312.75
2023-04-15T20:17:46.128Z,96316.91
2023-04-15T20:20:12.523Z,96308.56
2023-04-15T20:22:39.002Z,96297.81
2023-04-15T20:25:05.682Z,96296.34
2023-04-15T20:27:32.039Z,96296.97
2023-04-15T20:29:58.427Z,96291.94
2023-04-15T20:32:24.947Z,96294.16
2023-04-15T20:34:51.290Z,96294.47
2023-04-15T20:37:17.949Z,96284.38
2023-04-15T20:39:44.281Z,96274.34
2023-04-15T20:42:10.709Z,96285.97
2023-04-15T20:44:38.633Z,96294.16
2023-04-15T20:47:06.025Z,96293.66
2023-04-15T20:49:36.178Z,96306.56
2023-04-15T20:52:03.299Z,96298.41
2023-04-15T20:54:29.796Z,96307.06
2023-04-15T20:56:57.184Z,96316.03
2023-04-15T20:59:24.048Z,96326.41
2023-04-15T21:01:50.763Z,96315.41
2023-04-15T21:04:17.289Z,96319.19
2023-04-15T21:06:43.666Z,96326.84
2023-04-15T21:09:10.280Z,96333.75
2023-04-15T21:14:07.206Z,96334.59
2023-04-15T21:16:34.246Z,96348.09
2023-04-15T21:19:00.927Z,96363.66
2023-04-15T21:21:28.084Z,96373.84
2023-04-15T21:23:54.475Z,96377.28
2023-04-15T21:26:20.851Z,96380.22
2023-04-15T21:28:47.235Z,96386.34
2023-04-15T21:31:14.026Z,96387.00
2023-04-15T21:33:40.364Z,96386.78
2023-04-15T21:36:07.735Z,96396.94
2023-04-15T21:38:34.236Z,96395.75
2023-04-15T21:41:01.679Z,96407.13
2023-04-15T21:43:28.024Z,96406.94
2023-04-15T21:46:23.006Z,96412.75
2023-04-15T21:48:40.746Z,96419.44
2023-04-15T21:51:07.732Z,96418.91
2023-04-15T21:53:34.057Z,96422.66
2023-04-15T21:56:00.402Z,96419.22
2023-04-15T21:58:26.742Z,96420.09
2023-04-15T22:00:57.471Z,96422.06
2023-04-15T22:03:24.474Z,96421.84
2023-04-15T22:05:51.122Z,96435.13
2023-04-15T22:08:17.411Z,96436.09
2023-04-15T22:10:44.095Z,96433.28
2023-04-15T22:13:11.098Z,96423.50
2023-04-15T22:15:37.612Z,96418.25
2023-04-15T22:18:04.533Z,96414.97
2023-04-15T22:20:31.488Z,96419.16
2023-04-15T22:22:58.105Z,96429.50
2023-04-15T22:25:24.453Z,96425.38
2023-04-15T22:27:50.929Z,96428.31
2023-04-15T22:30:17.336Z,96432.13
2023-04-15T22:32:44.068Z,96430.28
2023-04-15T22:35:10.427Z,96423.06
2023-04-15T22:37:36.779Z,96431.16
2023-04-15T22:40:03.551Z,96429.97
2023-04-15T22:42:29.869Z,96438.25
2023-04-15T22:44:56.182Z,96435.31
2023-04-15T22:47:23.534Z,96440.91
2023-04-15T22:49:49.840Z,96431.94
2023-04-15T22:52:29.506Z,96438.66
2023-04-15T22:54:56.653Z,96435.78
2023-04-15T22:57:23.853Z,96437.47
2023-04-15T22:59:50.404Z,96438.88
2023-04-15T23:02:16.976Z,96436.69
2023-04-15T23:04:43.507Z,96420.59
2023-04-15T23:07:09.863Z,96416.97
2023-04-15T23:09:36.239Z,96411.28
2023-04-15T23:12:03.322Z,96414.13
2023-04-15T23:14:30.086Z,96415.94
2023-04-15T23:16:57.114Z,96413.94
2023-04-15T23:19:24.022Z,96416.34
2023-04-15T23:21:50.489Z,96425.44
2023-04-15T23:24:17.040Z,96424.50
2023-04-15T23:26:43.618Z,96421.38
2023-04-15T23:29:10.208Z,96422.00
2023-04-15T23:31:36.783Z,96416.34
2023-04-15T23:34:03.906Z,96423.50
2023-04-15T23:36:30.301Z,96413.34
2023-04-15T23:38:56.592Z,96420.00
2023-04-15T23:41:23.864Z,96411.91
2023-04-15T23:43:50.705Z,96418.59
2023-04-15T23:46:17.218Z,96412.53
2023-04-15T23:48:43.668Z,96422.38
2023-04-15T23:51:10.057Z,96428.91
2023-04-15T23:53:36.423Z,96427.50
2023-04-15T23:56:02.825Z,96440.84
2023-04-15T23:58:29.255Z,96446.28
